createdAt,value
2022-11-05T00:05:14.091Z,8.20
2022-11-05T00:10:21.072Z,8.20
2022-11-05T00:15:51.880Z,8.30
2022-11-05T00:20:53.679Z,8.30
2022-11-05T00:26:03.947Z,8.30
2022-11-05T00:31:11.254Z,8.30
2022-11-05T00:36:13.022Z,8.30
2022-11-05T00:41:14.780Z,8.30
2022-11-05T00:46:16.527Z,8.30
2022-11-05T00:51:18.466Z,8.30
2022-11-05T00:56:20.229Z,8.30
2022-11-05T01:01:22.072Z,8.40
2022-11-05T01:06:24.225Z,8.30
2022-11-05T01:11:35.247Z,8.30
2022-11-05T01:16:37.973Z,8.40
2022-11-05T01:21:39.888Z,8.40
2022-11-05T01:26:41.648Z,8.40
2022-11-05T01:31:43.463Z,8.40
2022-11-05T01:36:45.236Z,8.40
2022-11-05T01:41:46.989Z,8.40
2022-11-05T01:46:48.780Z,8.40
2022-11-05T01:51:51.417Z,8.40
2022-11-05T01:56:59.613Z,8.40
2022-11-05T02:02:02.361Z,8.40
2022-11-05T02:07:07.280Z,8.40
2022-11-05T02:12:09.818Z,8.40
2022-11-05T02:17:30.365Z,8.30
2022-11-05T02:23:07.456Z,8.40
2022-11-05T02:28:33.593Z,8.40
2022-11-05T02:33:56.715Z,8.40
2022-11-05T02:39:05.853Z,8.30
2022-11-05T02:44:28.078Z,8.30
2022-11-05T02:49:44.086Z,8.30
2022-11-05T02:54:54.370Z,8.20
2022-11-05T03:00:05.993Z,8.20
2022-11-05T03:05:08.047Z,8.20
2022-11-05T03:10:24.079Z,8.20
2022-11-05T03:15:35.053Z,8.20
2022-11-05T03:21:37.240Z,8.30
2022-11-05T03:26:55.505Z,8.30
2022-11-05T03:31:58.938Z,8.20
2022-11-05T03:37:03.525Z,8.20
2022-11-05T03:42:09.869Z,8.20
2022-11-05T03:47:16.981Z,8.20
2022-11-05T03:52:23.426Z,8.10
2022-11-05T03:57:29.634Z,8.20
2022-11-05T04:02:31.717Z,8.20
2022-11-05T04:07:52.112Z,8.20
2022-11-05T04:13:12.844Z,8.20
2022-11-05T04:18:14.652Z,8.10
2022-11-05T04:23:34.826Z,8.10
2022-11-05T04:28:55.353Z,8.10
2022-11-05T04:33:57.101Z,8.10
2022-11-05T04:38:58.869Z,8.00
2022-11-05T04:44:00.658Z,8.10
2022-11-05T04:49:02.421Z,8.10
2022-11-05T04:54:04.390Z,8.00
2022-11-05T04:59:06.213Z,8.00
2022-11-05T05:04:07.973Z,8.00
2022-11-05T05:09:09.754Z,8.00
2022-11-05T05:14:11.497Z,8.00
2022-11-05T05:19:13.293Z,8.10
2022-11-05T05:24:17.337Z,8.00
2022-11-05T05:29:19.210Z,8.10
2022-11-05T05:34:20.998Z,8.00
2022-11-05T05:39:22.742Z,8.00
2022-11-05T05:44:24.480Z,7.90
2022-11-05T05:49:26.228Z,7.90
2022-11-05T05:54:32.708Z,7.80
2022-11-05T05:59:36.065Z,7.70
2022-11-05T06:04:37.886Z,7.70
2022-11-05T06:09:39.636Z,7.80
2022-11-05T06:14:41.413Z,7.80
2022-11-05T06:19:43.165Z,7.80
2022-11-05T06:24:44.897Z,7.80
2022-11-05T06:29:46.637Z,7.80
2022-11-05T06:34:48.429Z,7.70
2022-11-05T06:39:50.198Z,7.80
2022-11-05T06:44:52.411Z,7.70
2022-11-05T06:49:54.249Z,7.80
2022-11-05T06:54:56.017Z,7.80
2022-11-05T07:00:02.272Z,7.80
2022-11-05T07:05:07.295Z,7.80
2022-11-05T07:10:12.811Z,7.90
2022-11-05T07:15:14.629Z,7.90
2022-11-05T07:20:16.469Z,7.90
2022-11-05T07:25:18.208Z,8.00
2022-11-05T07:30:19.969Z,8.10
2022-11-05T07:35:21.994Z,8.20
2022-11-05T07:40:26.293Z,8.30
2022-11-05T07:45:30.296Z,8.20
2022-11-05T07:50:36.804Z,8.40
2022-11-05T07:55:40.615Z,8.40
2022-11-05T08:00:42.544Z,8.40
2022-11-05T08:05:47.630Z,8.50
2022-11-05T08:10:49.499Z,8.50
2022-11-05T08:15:51.320Z,8.50
2022-11-05T08:20:53.108Z,8.60
2022-11-05T08:25:55.622Z,8.50
2022-11-05T08:30:57.987Z,8.60
2022-11-05T08:36:03.189Z,8.50
2022-11-05T08:41:05.372Z,8.40
2022-11-05T08:46:07.160Z,8.40
2022-11-05T08:51:08.984Z,8.40
2022-11-05T08:56:10.830Z,8.40
2022-11-05T09:01:12.724Z,8.50
2022-11-05T09:06:14.560Z,8.60
2022-11-05T09:11:16.566Z,8.60
2022-11-05T09:16:19.701Z,8.60
2022-11-05T09:21:21.958Z,8.80
2022-11-05T09:26:23.714Z,9.00
2022-11-05T09:31:25.554Z,9.00
2022-11-05T09:36:27.368Z,8.90
2022-11-05T09:41:38.841Z,8.90
2022-11-05T09:47:10.953Z,8.90
2022-11-05T09:52:18.417Z,8.90
2022-11-05T09:57:28.203Z,9.00
2022-11-05T10:02:32.847Z,9.10
2022-11-05T10:07:51.167Z,9.20
2022-11-05T10:12:55.002Z,9.30
2022-11-05T10:18:04.818Z,9.20
2022-11-05T10:23:15.970Z,9.40
2022-11-05T10:28:22.055Z,9.60
2022-11-05T10:33:40.698Z,9.60
2022-11-05T10:38:42.642Z,9.70
2022-11-05T10:44:19.221Z,9.60
2022-11-05T10:49:23.809Z,9.50
2022-11-05T10:54:33.798Z,9.60
2022-11-05T10:59:35.560Z,9.40
2022-11-05T11:04:38.243Z,9.20
2022-11-05T11:09:48.246Z,9.20
2022-11-05T11:15:15.395Z,9.30
2022-11-05T11:20:29.830Z,9.30
2022-11-05T11:25:56.464Z,9.30
2022-11-05T11:31:22.812Z,9.40
2022-11-05T11:36:31.971Z,9.50
2022-11-05T11:41:41.962Z,9.60
2022-11-05T11:46:48.461Z,9.60
2022-11-05T11:51:59.625Z,9.70
2022-11-05T11:57:01.774Z,9.70
2022-11-05T12:02:24.187Z,9.70
2022-11-05T12:07:44.899Z,9.80
2022-11-05T12:13:07.925Z,9.80
2022-11-05T12:18:19.802Z,9.80
2022-11-05T12:23:45.122Z,9.80
2022-11-05T12:29:18.382Z,9.80
2022-11-05T12:34:44.398Z,9.80
2022-11-05T12:40:09.141Z,9.80
2022-11-05T12:45:27.153Z,9.90
2022-11-05T12:50:39.437Z,9.70
2022-11-05T12:55:48.347Z,9.70
2022-11-05T13:00:57.705Z,9.60
2022-11-05T13:06:07.553Z,9.70
2022-11-05T13:11:31.562Z,9.70
2022-11-05T13:16:35.776Z,9.60
2022-11-05T13:21:39.290Z,9.50
2022-11-05T13:26:50.861Z,9.60
2022-11-05T13:32:04.611Z,9.70
2022-11-05T13:37:27.180Z,9.80
2022-11-05T13:43:06.816Z,9.80
2022-11-05T13:48:43.890Z,9.80
2022-11-05T13:53:58.464Z,9.80
2022-11-05T13:59:09.981Z,9.80
2022-11-05T14:04:25.258Z,9.80
2022-11-05T14:09:27.439Z,9.80
2022-11-05T14:14:33.898Z,9.80
2022-11-05T14:20:06.662Z,9.80
2022-11-05T14:25:28.486Z,9.80
2022-11-05T14:30:41.152Z,9.70
2022-11-05T14:35:43.301Z,9.70
2022-11-05T14:40:46.481Z,9.60
2022-11-05T14:46:00.709Z,9.60
2022-11-05T14:51:02.659Z,9.60
2022-11-05T14:56:13.049Z,9.60
2022-11-05T15:01:14.939Z,9.50
2022-11-05T15:06:25.776Z,9.50
2022-11-05T15:11:38.945Z,9.50
2022-11-05T15:16:43.313Z,9.40
2022-11-05T15:21:45.970Z,9.40
2022-11-05T15:27:26.822Z,9.30
2022-11-05T15:32:28.948Z,9.10
2022-11-05T15:37:30.731Z,9.00
2022-11-05T15:42:32.723Z,8.80
2022-11-05T15:47:34.869Z,8.70
2022-11-05T15:52:42.253Z,8.60
2022-11-05T15:57:51.245Z,8.50
2022-11-05T16:02:58.085Z,8.40
2022-11-05T16:08:00.768Z,8.10
2022-11-05T16:13:42.300Z,8.00
2022-11-05T16:18:45.464Z,7.80
2022-11-05T16:23:53.029Z,7.70
2022-11-05T16:28:55.790Z,7.50
2022-11-05T16:33:58.735Z,7.40
2022-11-05T16:39:00.593Z,7.20
2022-11-05T16:44:03.080Z,7.30
2022-11-05T16:49:04.908Z,7.20
2022-11-05T16:54:06.896Z,7.30
2022-11-05T16:59:12.722Z,7.40
2022-11-05T17:04:14.499Z,7.40
2022-11-05T17:09:16.951Z,7.40
2022-11-05T17:14:18.738Z,7.30
2022-11-05T17:19:20.488Z,7.30
2022-11-05T17:24:22.554Z,7.30
2022-11-05T17:29:24.347Z,7.30
2022-11-05T17:34:26.087Z,7.40
2022-11-05T17:39:31.611Z,7.50
2022-11-05T17:44:33.743Z,7.40
2022-11-05T17:49:35.464Z,7.30
2022-11-05T17:54:37.315Z,7.30
2022-11-05T17:59:39.147Z,7.30
2022-11-05T18:04:41.137Z,7.30
2022-11-05T18:09:42.871Z,7.30
2022-11-05T18:14:44.583Z,7.40
2022-11-05T18:19:46.397Z,7.50
2022-11-05T18:24:48.567Z,7.50
2022-11-05T18:29:50.658Z,7.50
2022-11-05T18:34:52.420Z,7.50
2022-11-05T18:39:54.761Z,7.60
2022-11-05T18:44:56.734Z,7.50
2022-11-05T18:49:58.431Z,7.50
2022-11-05T18:55:00.256Z,7.50
2022-11-05T19:00:02.171Z,7.60
2022-11-05T19:05:28.084Z,7.50
2022-11-05T19:10:26.246Z,7.40
2022-11-05T19:15:28.061Z,7.40
2022-11-05T19:20:35.111Z,7.40
2022-11-05T19:25:39.295Z,7.40
2022-11-05T19:30:41.180Z,7.40
2022-11-05T19:35:43.049Z,7.30
2022-11-05T19:40:44.884Z,7.30
2022-11-05T19:45:46.651Z,7.30
2022-11-05T19:50:48.405Z,7.30
2022-11-05T19:55:50.196Z,7.30
2022-11-05T20:00:54.779Z,7.30
2022-11-05T20:06:02.963Z,7.30
2022-11-05T20:11:05.359Z,7.30
2022-11-05T20:16:07.433Z,7.30
2022-11-05T20:21:09.789Z,7.30
2022-11-05T20:26:12.302Z,7.30
2022-11-05T20:31:16.328Z,7.30
2022-11-05T20:36:23.179Z,7.20
2022-11-05T20:41:26.126Z,7.10
2022-11-05T20:46:28.072Z,7.10
2022-11-05T20:51:29.976Z,7.10
2022-11-05T20:56:35.310Z,7.00
2022-11-05T21:01:37.269Z,7.00
2022-11-05T21:06:39.179Z,7.00
2022-11-05T21:11:59.685Z,7.10
2022-11-05T21:17:01.736Z,7.10
2022-11-05T21:22:05.239Z,7.20
2022-11-05T21:27:06.980Z,7.30
2022-11-05T21:32:09.348Z,7.30
2022-11-05T21:37:11.108Z,7.30
2022-11-05T21:42:13.159Z,7.30
2022-11-05T21:47:15.735Z,7.30
2022-11-05T21:52:36.078Z,7.30
2022-11-05T21:57:56.639Z,7.40
2022-11-05T22:03:00.027Z,7.40
2022-11-05T22:08:01.879Z,7.40
2022-11-05T22:13:03.615Z,7.40
2022-11-05T22:18:05.440Z,7.40
2022-11-05T22:23:11.054Z,7.40
2022-11-05T22:28:13.521Z,7.50
2022-11-05T22:33:15.420Z,7.50
2022-11-05T22:38:17.312Z,7.50
2022-11-05T22:43:19.099Z,7.50
2022-11-05T22:48:20.797Z,7.50
2022-11-05T22:53:22.584Z,7.50
2022-11-05T22:58:24.312Z,7.50
2022-11-05T23:03:27.316Z,7.50
2022-11-05T23:08:48.463Z,7.50
2022-11-05T23:13:50.526Z,7.60
2022-11-05T23:19:10.811Z,7.60
2022-11-05T23:24:13.404Z,7.50
2022-11-05T23:29:15.200Z,7.50
2022-11-05T23:34:16.932Z,7.50
2022-11-05T23:39:19.736Z,7.40
2022-11-05T23:44:39.940Z,7.50
2022-11-05T23:49:41.706Z,7.40
2022-11-05T23:54:43.499Z,7.40
2022-11-05T23:59:45.474Z,7.40
